createdAt,value
2022-09-09T00:01:54.452Z,2.01
2022-09-09T00:15:55.065Z,2.05
2022-09-09T00:18:45.625Z,2.09
2022-09-09T00:21:27.425Z,1.83
2022-09-09T00:24:11.485Z,1.98
2022-09-09T00:26:59.425Z,1.91
2022-09-09T00:29:44.365Z,2.01
2022-09-09T00:32:27.445Z,1.94
2022-09-09T00:42:46.425Z,2.05
2022-09-09T00:45:56.483Z,2.15
2022-09-09T00:48:46.380Z,1.90
2022-09-09T00:51:45.487Z,1.94
2022-09-09T00:54:38.179Z,1.89
2022-09-09T00:57:36.439Z,1.90
2022-09-09T01:10:58.459Z,2.06
2022-09-09T01:13:36.559Z,2.06
2022-09-09T01:16:21.636Z,2.07
2022-09-09T01:18:57.136Z,2.02
2022-09-09T01:21:49.576Z,2.12
2022-09-09T01:38:29.505Z,2.17
2022-09-09T01:41:10.454Z,2.07
2022-09-09T01:44:12.074Z,2.26
2022-09-09T01:46:53.435Z,2.09
2022-09-09T01:49:27.375Z,2.12
2022-09-09T01:52:03.483Z,2.19
2022-09-09T02:05:32.445Z,2.41
2022-09-09T02:08:21.728Z,2.00
2022-09-09T02:11:17.420Z,2.20
2022-09-09T02:14:13.272Z,2.10
2022-09-09T02:17:05.643Z,2.08
2022-09-09T02:30:45.498Z,1.86
2022-09-09T02:33:20.424Z,2.03
2022-09-09T02:36:00.483Z,2.05
2022-09-09T02:42:21.457Z,2.14
2022-09-09T02:44:57.435Z,1.99
2022-09-09T02:57:53.397Z,2.09
2022-09-09T03:00:43.512Z,2.15
2022-09-09T03:03:19.290Z,2.07
2022-09-09T03:05:56.464Z,2.20
2022-09-09T03:08:30.119Z,2.18
2022-09-09T03:24:04.464Z,1.94
2022-09-09T03:26:38.761Z,1.82
2022-09-09T03:29:16.462Z,1.92
2022-09-09T03:31:53.038Z,2.01
2022-09-09T03:34:33.421Z,2.06
2022-09-09T03:37:07.701Z,2.00
2022-09-09T03:39:44.486Z,1.88
2022-09-09T03:49:50.381Z,2.15
2022-09-09T03:52:30.481Z,2.21
2022-09-09T03:55:08.581Z,2.28
2022-09-09T03:57:48.438Z,2.30
2022-09-09T04:00:22.142Z,2.24
2022-09-09T04:02:59.501Z,2.08
2022-09-09T04:05:33.041Z,2.14
2022-09-09T04:18:23.421Z,2.26
2022-09-09T04:21:05.869Z,2.29
2022-09-09T04:23:40.687Z,2.12
2022-09-09T04:26:15.462Z,2.25
2022-09-09T04:28:49.104Z,2.20
2022-09-09T04:45:07.442Z,2.73
2022-09-09T04:47:42.122Z,2.57
2022-09-09T04:50:16.441Z,2.76
2022-09-09T04:52:56.841Z,2.68
2022-09-09T04:55:38.469Z,2.64
2022-09-09T04:58:11.961Z,2.83
2022-09-09T05:00:48.486Z,2.69
2022-09-09T05:10:34.421Z,2.84
2022-09-09T05:13:14.442Z,2.78
2022-09-09T05:15:55.704Z,2.88
2022-09-09T05:18:36.520Z,2.97
2022-09-09T05:21:11.421Z,2.94
2022-09-09T05:23:47.603Z,3.05
2022-09-09T05:36:59.441Z,3.02
2022-09-09T05:39:33.540Z,2.92
2022-09-09T05:42:07.461Z,3.03
2022-09-09T05:44:41.003Z,2.92
2022-09-09T05:47:14.461Z,3.01
2022-09-09T05:49:48.222Z,2.92
2022-09-09T06:06:10.421Z,2.58
2022-09-09T06:08:45.641Z,2.68
2022-09-09T06:11:24.523Z,2.72
2022-09-09T06:13:59.841Z,2.73
2022-09-09T06:16:37.507Z,2.52
2022-09-09T06:19:23.441Z,2.53
2022-09-09T06:32:22.423Z,2.40
2022-09-09T06:35:02.461Z,2.49
2022-09-09T06:37:36.222Z,2.56
2022-09-09T06:40:10.511Z,2.38
2022-09-09T06:42:44.403Z,2.43
2022-09-09T06:45:41.443Z,2.40
2022-09-09T06:58:57.461Z,2.39
2022-09-09T07:01:34.739Z,2.30
2022-09-09T07:04:18.460Z,2.45
2022-09-09T07:06:52.059Z,2.40
2022-09-09T07:09:29.439Z,2.14
2022-09-09T07:26:06.420Z,2.35
2022-09-09T07:28:48.460Z,2.54
2022-09-09T07:31:26.954Z,2.69
2022-09-09T07:34:10.101Z,2.66
2022-09-09T07:36:44.140Z,2.84
2022-09-09T07:39:21.461Z,2.52
2022-09-09T07:52:34.461Z,3.69
2022-09-09T07:55:08.969Z,4.23
2022-09-09T07:57:43.419Z,4.12
2022-09-09T08:00:18.420Z,4.57
2022-09-09T08:03:00.860Z,4.78
2022-09-09T08:05:35.348Z,5.52
2022-09-09T08:18:26.439Z,5.60
2022-09-09T08:21:17.460Z,5.50
2022-09-09T08:23:57.628Z,5.75
2022-09-09T08:26:42.441Z,5.48
2022-09-09T08:29:16.559Z,5.50
2022-09-09T08:45:42.460Z,3.55
2022-09-09T08:48:42.939Z,3.64
2022-09-09T08:51:23.459Z,3.45
2022-09-09T08:54:03.227Z,3.21
2022-09-09T08:56:43.447Z,3.35
2022-09-09T08:59:19.840Z,3.51
2022-09-09T09:12:26.418Z,3.73
2022-09-09T09:15:07.448Z,3.78
2022-09-09T09:17:41.187Z,3.70
2022-09-09T09:20:20.427Z,3.50
2022-09-09T09:23:01.299Z,3.13
2022-09-09T09:25:48.420Z,3.02
2022-09-09T09:41:45.040Z,2.08
2022-09-09T09:44:34.560Z,1.91
2022-09-09T09:47:16.920Z,1.55
2022-09-09T09:50:07.460Z,1.50
2022-09-09T10:06:45.400Z,1.40
2022-09-09T10:09:35.467Z,1.35
2022-09-09T10:12:26.920Z,1.21
2022-09-09T10:15:28.546Z,1.26
2022-09-09T10:18:23.359Z,1.22
2022-09-09T10:31:24.467Z,1.25
2022-09-09T10:34:21.459Z,1.11
2022-09-09T10:36:55.159Z,0.96
2022-09-09T10:39:44.427Z,1.02
2022-09-09T10:42:29.698Z,1.19
2022-09-09T10:45:27.040Z,1.03
2022-09-09T10:58:49.484Z,1.17
2022-09-09T11:01:29.342Z,1.27
2022-09-09T11:04:23.500Z,1.26
2022-09-09T11:06:57.117Z,1.19
2022-09-09T11:09:37.440Z,1.08
2022-09-09T11:26:26.454Z,1.20
2022-09-09T11:29:44.479Z,1.32
2022-09-09T11:32:41.580Z,1.53
2022-09-09T11:35:40.462Z,1.44
2022-09-09T11:38:26.641Z,1.48
2022-09-09T11:41:16.091Z,1.60
2022-09-09T11:51:36.410Z,1.33
2022-09-09T11:54:37.459Z,1.32
2022-09-09T11:57:26.792Z,1.36
2022-09-09T12:00:07.440Z,1.24
2022-09-09T12:02:50.009Z,1.25
2022-09-09T12:05:30.419Z,1.26
2022-09-09T12:18:45.521Z,1.48
2022-09-09T12:21:35.280Z,1.62
2022-09-09T12:24:18.440Z,1.56
2022-09-09T12:27:06.300Z,1.54
2022-09-09T12:30:02.459Z,1.87
2022-09-09T12:32:35.939Z,1.89
2022-09-09T12:35:20.462Z,1.75
2022-09-09T12:45:07.400Z,1.88
2022-09-09T12:47:55.439Z,2.06
2022-09-09T12:50:34.501Z,2.01
2022-09-09T12:53:26.365Z,2.08
2022-09-09T12:56:04.619Z,2.22
2022-09-09T12:58:46.467Z,2.29
2022-09-09T13:12:05.459Z,2.15
2022-09-09T13:14:39.508Z,2.10
2022-09-09T13:17:25.478Z,2.19
2022-09-09T13:19:59.045Z,1.92
2022-09-09T13:22:40.461Z,2.07
2022-09-09T13:25:23.683Z,2.14
2022-09-09T13:38:31.399Z,1.84
2022-09-09T13:41:14.480Z,1.87
2022-09-09T13:43:52.681Z,1.98
2022-09-09T13:46:41.459Z,1.87
2022-09-09T13:49:23.883Z,1.82
2022-09-09T13:52:16.439Z,1.96
2022-09-09T13:54:53.560Z,1.87
2022-09-09T14:05:08.479Z,1.62
2022-09-09T14:07:42.723Z,1.50
2022-09-09T14:10:19.459Z,1.21
2022-09-09T14:12:53.119Z,1.37
2022-09-09T14:15:26.480Z,1.26
2022-09-09T14:18:00.094Z,1.19
2022-09-09T14:20:33.953Z,1.39
2022-09-09T14:33:46.440Z,1.03
2022-09-09T14:36:20.120Z,0.94
2022-09-09T14:38:54.439Z,0.78
2022-09-09T14:41:28.699Z,0.81
2022-09-09T14:44:03.439Z,0.68
2022-09-09T15:00:40.362Z,0.85
2022-09-09T15:03:22.739Z,0.79
2022-09-09T15:05:58.359Z,0.90
2022-09-09T15:08:36.318Z,0.92
2022-09-09T15:11:21.521Z,0.75
2022-09-09T15:14:05.604Z,0.95
2022-09-09T15:27:17.441Z,1.11
2022-09-09T15:29:51.159Z,1.21
2022-09-09T15:32:25.598Z,1.14
2022-09-09T15:34:58.999Z,1.20
2022-09-09T15:37:32.489Z,1.42
2022-09-09T15:40:08.131Z,1.30
2022-09-09T15:52:58.423Z,1.24
2022-09-09T15:55:38.441Z,1.15
2022-09-09T15:58:11.961Z,1.24
2022-09-09T16:00:45.499Z,1.24
2022-09-09T16:03:19.140Z,1.28
2022-09-09T16:05:59.900Z,1.17
2022-09-09T16:19:16.420Z,1.12
2022-09-09T16:21:50.780Z,1.38
2022-09-09T16:24:26.440Z,1.43
2022-09-09T16:27:00.000Z,1.48
2022-09-09T16:29:33.503Z,1.29
2022-09-09T16:32:07.141Z,1.12
2022-09-09T16:34:42.488Z,1.15
2022-09-09T16:47:52.481Z,1.13
2022-09-09T16:50:28.019Z,1.23
2022-09-09T16:53:01.520Z,1.13
2022-09-09T16:55:39.621Z,1.18
2022-09-09T16:58:19.490Z,1.15
2022-09-09T17:00:59.029Z,1.16
2022-09-09T17:13:57.420Z,1.50
2022-09-09T17:16:40.536Z,1.54
2022-09-09T17:19:15.788Z,1.65
2022-09-09T17:22:14.795Z,1.48
2022-09-09T17:24:44.001Z,1.76
2022-09-09T17:41:08.460Z,1.11
2022-09-09T17:43:43.681Z,1.73
2022-09-09T17:46:21.491Z,7.35
2022-09-09T17:49:01.228Z,8.11
2022-09-09T17:51:42.720Z,6.58
2022-09-09T17:54:20.200Z,5.44
2022-09-09T18:07:17.402Z,1.88
2022-09-09T18:09:57.488Z,1.57
2022-09-09T18:12:30.980Z,1.47
2022-09-09T18:15:05.780Z,1.28
2022-09-09T18:17:40.042Z,1.11
2022-09-09T18:20:14.481Z,1.26
2022-09-09T18:33:26.482Z,1.00
2022-09-09T18:36:07.019Z,1.04
2022-09-09T18:38:48.460Z,1.07
2022-09-09T18:41:24.926Z,1.03
2022-09-09T18:44:07.563Z,1.06
2022-09-09T19:00:44.488Z,1.15
2022-09-09T19:03:24.438Z,1.16
2022-09-09T19:06:02.272Z,1.25
2022-09-09T19:08:43.500Z,1.20
2022-09-09T19:11:20.802Z,1.21
2022-09-09T19:14:04.452Z,1.29
2022-09-09T19:27:16.480Z,1.41
2022-09-09T19:29:52.077Z,1.45
2022-09-09T19:32:52.670Z,1.43
2022-09-09T19:35:28.620Z,1.45
2022-09-09T19:38:04.447Z,1.47
2022-09-09T19:40:37.898Z,1.22
2022-09-09T19:53:28.440Z,1.02
2022-09-09T19:56:09.559Z,1.03
2022-09-09T19:58:45.700Z,1.12
2022-09-09T20:01:29.483Z,0.93
2022-09-09T20:04:05.809Z,0.94
2022-09-09T20:22:18.481Z,0.87
2022-09-09T20:24:59.861Z,0.76
2022-09-09T20:27:36.401Z,0.75
2022-09-09T20:30:12.480Z,0.62
2022-09-09T20:32:45.970Z,0.67
2022-09-09T20:35:20.482Z,0.63
2022-09-09T20:48:32.441Z,1.32
2022-09-09T20:51:06.521Z,1.43
2022-09-09T20:53:40.500Z,1.39
2022-09-09T20:56:14.567Z,1.26
2022-09-09T20:58:48.460Z,1.23
2022-09-09T21:01:22.150Z,1.14
2022-09-09T21:14:13.439Z,1.17
2022-09-09T21:16:53.557Z,1.08
2022-09-09T21:19:26.957Z,1.04
2022-09-09T21:22:01.460Z,0.96
2022-09-09T21:24:34.980Z,0.92
2022-09-09T21:40:51.500Z,1.06
2022-09-09T21:43:24.920Z,0.98
2022-09-09T21:46:00.545Z,1.10
2022-09-09T21:48:34.383Z,0.98
2022-09-09T21:51:12.461Z,1.12
2022-09-09T21:53:46.500Z,1.31
2022-09-09T21:56:25.488Z,1.33
2022-09-09T22:06:49.431Z,1.52
2022-09-09T22:09:30.500Z,1.45
2022-09-09T22:12:06.621Z,1.60
2022-09-09T22:14:40.479Z,1.55
2022-09-09T22:17:13.979Z,1.80
2022-09-09T22:19:47.440Z,1.57
2022-09-09T22:33:35.580Z,1.95
2022-09-09T22:36:09.240Z,1.97
2022-09-09T22:38:42.464Z,1.65
2022-09-09T22:41:17.023Z,1.95
2022-09-09T22:43:52.468Z,1.94
2022-09-09T22:46:26.059Z,1.92
2022-09-09T23:02:41.462Z,2.37
2022-09-09T23:05:15.320Z,2.36
2022-09-09T23:07:49.440Z,2.58
2022-09-09T23:10:23.128Z,2.58
2022-09-09T23:12:57.490Z,2.56
2022-09-09T23:15:38.243Z,2.68
2022-09-09T23:28:37.557Z,2.90
2022-09-09T23:31:21.587Z,3.08
2022-09-09T23:33:55.285Z,2.97
2022-09-09T23:36:32.918Z,2.89
2022-09-09T23:39:08.190Z,2.95
2022-09-09T23:41:43.571Z,2.86
2022-09-09T23:55:02.575Z,2.76
2022-09-09T23:57:38.811Z,2.94
